createdAt,value
2023-07-09T00:00:48.346Z,4.10
2023-07-09T00:05:50.674Z,4.07
2023-07-09T00:10:52.195Z,4.60
2023-07-09T00:15:58.529Z,4.85
2023-07-09T00:21:00.152Z,5.18
2023-07-09T00:26:04.620Z,4.68
2023-07-09T00:31:07.213Z,4.88
2023-07-09T00:36:26.836Z,3.80
2023-07-09T00:41:29.575Z,5.13
2023-07-09T00:46:31.111Z,4.72
2023-07-09T00:51:37.813Z,4.75
2023-07-09T00:56:43.608Z,4.47
2023-07-09T01:01:48.431Z,4.63
2023-07-09T01:06:52.634Z,4.88
2023-07-09T01:11:57.557Z,5.15
2023-07-09T01:17:05.588Z,4.68
2023-07-09T01:22:07.075Z,4.32
2023-07-09T01:27:08.540Z,4.57
2023-07-09T01:32:11.193Z,4.53
2023-07-09T01:37:12.635Z,4.40
2023-07-09T01:42:14.140Z,4.50
2023-07-09T01:47:16.546Z,4.13
2023-07-09T01:52:20.188Z,3.97
2023-07-09T01:57:27.123Z,4.50
2023-07-09T02:02:28.718Z,4.22
2023-07-09T02:07:30.227Z,3.50
2023-07-09T02:12:31.673Z,4.60
2023-07-09T02:17:33.106Z,4.82
2023-07-09T02:22:35.739Z,4.68
2023-07-09T02:27:38.207Z,3.83
2023-07-09T02:32:39.745Z,3.90
2023-07-09T02:37:41.653Z,4.35
2023-07-09T02:42:43.212Z,3.38
2023-07-09T02:47:44.986Z,3.72
2023-07-09T02:52:46.756Z,3.80
2023-07-09T02:57:48.250Z,3.70
2023-07-09T03:02:49.756Z,3.70
2023-07-09T03:07:51.312Z,4.15
2023-07-09T03:12:53.094Z,3.78
2023-07-09T03:17:54.701Z,3.22
2023-07-09T03:22:56.195Z,3.97
2023-07-09T03:27:57.625Z,4.45
2023-07-09T03:32:59.142Z,4.88
2023-07-09T03:38:00.826Z,4.65
2023-07-09T03:43:02.274Z,4.53
2023-07-09T03:48:05.394Z,3.92
2023-07-09T03:53:07.062Z,4.35
2023-07-09T03:58:08.891Z,4.15
2023-07-09T04:03:11.092Z,4.63
2023-07-09T04:08:12.511Z,3.95
2023-07-09T04:13:14.010Z,4.03
2023-07-09T04:18:15.507Z,5.05
2023-07-09T04:23:17.978Z,5.43
2023-07-09T04:28:19.767Z,4.63
2023-07-09T04:33:21.730Z,4.90
2023-07-09T04:38:24.658Z,5.05
2023-07-09T04:43:26.058Z,3.67
2023-07-09T04:48:27.539Z,4.25
2023-07-09T04:53:29.029Z,4.32
2023-07-09T04:58:31.225Z,4.47
2023-07-09T05:03:32.816Z,5.03
2023-07-09T05:08:34.355Z,5.13
2023-07-09T05:13:35.822Z,5.22
2023-07-09T05:18:38.345Z,5.22
2023-07-09T05:23:39.905Z,4.53
2023-07-09T05:28:41.392Z,4.55
2023-07-09T05:33:42.944Z,4.30
2023-07-09T05:38:44.730Z,5.15
2023-07-09T05:43:46.206Z,5.55
2023-07-09T05:48:47.737Z,5.72
2023-07-09T05:53:49.269Z,6.47
2023-07-09T05:58:50.743Z,6.65
2023-07-09T06:03:52.335Z,6.97
2023-07-09T06:08:54.689Z,6.13
2023-07-09T06:13:56.863Z,6.47
2023-07-09T06:18:58.668Z,5.63
2023-07-09T06:24:00.151Z,6.38
2023-07-09T06:29:02.151Z,5.78
2023-07-09T06:34:04.216Z,7.43
2023-07-09T06:39:06.657Z,5.18
2023-07-09T06:44:09.376Z,5.40
2023-07-09T06:49:10.864Z,6.50
2023-07-09T06:54:13.989Z,6.03
2023-07-09T06:59:15.536Z,6.18
2023-07-09T07:04:16.946Z,5.72
2023-07-09T07:09:18.422Z,5.07
2023-07-09T07:14:19.902Z,7.50
2023-07-09T07:19:21.336Z,5.88
2023-07-09T07:24:22.775Z,7.57
2023-07-09T07:29:24.261Z,8.02
2023-07-09T07:34:25.837Z,9.00
2023-07-09T07:39:27.372Z,8.07
2023-07-09T07:44:28.878Z,8.50
2023-07-09T07:49:30.275Z,12.82
2023-07-09T07:54:35.210Z,11.55
2023-07-09T07:59:37.991Z,14.88
2023-07-09T08:04:41.220Z,14.73
2023-07-09T08:09:42.692Z,15.00
2023-07-09T08:14:47.188Z,15.38
2023-07-09T08:19:51.549Z,11.75
2023-07-09T08:24:53.075Z,14.77
2023-07-09T08:29:54.820Z,9.68
2023-07-09T08:40:16.555Z,12.38
2023-07-09T08:45:26.960Z,9.25
2023-07-09T08:50:42.774Z,12.07
2023-07-09T08:55:44.449Z,11.93
2023-07-09T09:01:03.072Z,11.52
2023-07-09T09:06:12.298Z,7.10
2023-07-09T09:11:22.741Z,6.68
2023-07-09T09:16:41.038Z,3.88
2023-07-09T09:21:43.610Z,4.60
2023-07-09T09:26:45.779Z,5.20
2023-07-09T09:31:52.312Z,5.35
2023-07-09T09:36:54.340Z,5.40
2023-07-09T09:41:58.837Z,5.53
2023-07-09T09:47:01.103Z,4.32
2023-07-09T09:52:03.529Z,3.78
2023-07-09T09:57:05.653Z,3.58
2023-07-09T10:02:21.443Z,3.40
2023-07-09T10:07:30.068Z,3.40
2023-07-09T10:12:50.807Z,3.47
2023-07-09T10:18:00.158Z,4.47
2023-07-09T10:23:26.593Z,4.07
2023-07-09T10:28:53.589Z,3.83
2023-07-09T10:34:16.356Z,3.90
2023-07-09T10:39:25.307Z,5.20
2023-07-09T10:44:36.325Z,5.18
2023-07-09T10:49:42.765Z,5.75
2023-07-09T10:55:18.277Z,6.35
2023-07-09T11:00:22.998Z,4.72
2023-07-09T11:05:24.991Z,3.60
2023-07-09T11:10:32.082Z,3.85
2023-07-09T11:15:40.333Z,3.58
2023-07-09T11:20:46.151Z,3.70
2023-07-09T11:26:01.265Z,3.83
2023-07-09T11:31:21.258Z,3.13
2023-07-09T11:36:31.974Z,4.18
2023-07-09T11:41:44.308Z,3.35
2023-07-09T11:47:01.025Z,3.75
2023-07-09T11:52:05.447Z,3.38
2023-07-09T11:57:13.550Z,3.10
2023-07-09T12:02:19.219Z,3.05
2023-07-09T12:07:25.410Z,2.65
2023-07-09T12:12:28.936Z,2.30
2023-07-09T12:17:31.663Z,2.30
2023-07-09T12:22:33.753Z,2.20
2023-07-09T12:27:38.524Z,2.65
2023-07-09T12:32:48.381Z,3.15
2023-07-09T12:37:53.793Z,3.88
2023-07-09T12:42:58.396Z,2.85
2023-07-09T12:48:00.229Z,2.38
2023-07-09T12:53:13.929Z,2.30
2023-07-09T12:58:24.071Z,2.30
2023-07-09T13:03:31.180Z,1.73
2023-07-09T13:08:42.133Z,1.40
2023-07-09T13:13:55.781Z,1.42
2023-07-09T13:18:57.434Z,1.75
2023-07-09T13:23:59.067Z,1.30
2023-07-09T13:29:00.525Z,1.40
2023-07-09T13:34:03.168Z,2.28
2023-07-09T13:39:06.698Z,1.55
2023-07-09T13:44:18.119Z,1.67
2023-07-09T13:49:21.062Z,2.00
2023-07-09T13:54:38.823Z,1.23
2023-07-09T13:59:40.889Z,1.80
2023-07-09T14:04:42.378Z,1.65
2023-07-09T14:09:43.820Z,1.60
2023-07-09T14:14:46.224Z,1.67
2023-07-09T14:19:48.163Z,2.00
2023-07-09T14:24:49.658Z,2.30
2023-07-09T14:29:51.142Z,2.15
2023-07-09T14:34:52.556Z,1.88
2023-07-09T14:39:54.079Z,2.20
2023-07-09T14:44:55.648Z,2.10
2023-07-09T14:49:57.082Z,2.20
2023-07-09T14:54:58.536Z,2.97
2023-07-09T14:59:59.987Z,2.85
2023-07-09T15:05:08.129Z,2.80
2023-07-09T15:10:14.750Z,3.25
2023-07-09T15:15:21.832Z,3.83
2023-07-09T15:20:27.058Z,4.28
2023-07-09T15:25:31.617Z,5.22
2023-07-09T15:30:33.144Z,4.80
2023-07-09T15:35:37.127Z,2.88
2023-07-09T15:40:38.610Z,2.35
2023-07-09T15:45:44.668Z,3.85
2023-07-09T15:50:46.085Z,3.63
2023-07-09T15:55:47.670Z,4.40
2023-07-09T16:00:50.525Z,4.72
2023-07-09T16:05:52.093Z,5.85
2023-07-09T16:10:53.843Z,6.65
2023-07-09T16:15:55.341Z,6.65
2023-07-09T16:20:57.418Z,5.38
2023-07-09T16:25:58.806Z,4.65
2023-07-09T16:31:00.240Z,4.90
2023-07-09T16:36:05.412Z,4.63
2023-07-09T16:41:07.438Z,4.20
2023-07-09T16:46:24.778Z,5.63
2023-07-09T16:51:27.049Z,5.63
2023-07-09T16:56:28.533Z,6.05
2023-07-09T17:01:30.007Z,5.28
2023-07-09T17:06:31.556Z,5.43
2023-07-09T17:11:33.040Z,5.03
2023-07-09T17:16:35.873Z,6.72
2023-07-09T17:21:37.401Z,6.07
2023-07-09T17:26:38.849Z,6.45
2023-07-09T17:31:40.244Z,6.57
2023-07-09T17:36:43.003Z,7.03
2023-07-09T17:41:44.891Z,6.40
2023-07-09T17:46:47.781Z,5.70
2023-07-09T17:51:49.337Z,4.78
2023-07-09T17:56:53.732Z,5.00
2023-07-09T18:02:02.178Z,4.88
2023-07-09T18:07:21.386Z,5.47
2023-07-09T18:12:26.978Z,4.57
2023-07-09T18:17:35.487Z,3.05
2023-07-09T18:22:36.971Z,4.38
2023-07-09T18:27:42.930Z,4.50
2023-07-09T18:32:46.287Z,4.20
2023-07-09T18:37:54.215Z,3.78
2023-07-09T18:42:56.541Z,3.88
2023-07-09T18:47:58.494Z,3.40
2023-07-09T18:53:00.340Z,3.38
2023-07-09T18:58:02.291Z,4.68
2023-07-09T19:03:04.127Z,4.22
2023-07-09T19:08:26.276Z,4.82
2023-07-09T19:13:27.876Z,4.43
2023-07-09T19:18:34.539Z,5.00
2023-07-09T19:23:36.449Z,3.65
2023-07-09T19:28:38.039Z,4.25
2023-07-09T19:33:41.393Z,4.00
2023-07-09T19:38:42.926Z,4.13
2023-07-09T19:43:44.311Z,3.88
2023-07-09T19:48:45.902Z,4.35
2023-07-09T19:53:47.619Z,4.75
2023-07-09T19:58:50.529Z,3.40
2023-07-09T20:03:53.605Z,4.65
2023-07-09T20:08:56.017Z,4.07
2023-07-09T20:13:57.497Z,4.03
2023-07-09T20:18:59.755Z,4.10
2023-07-09T20:24:01.750Z,4.07
2023-07-09T20:29:04.474Z,3.30
2023-07-09T20:34:24.484Z,3.72
2023-07-09T20:39:26.065Z,3.60
2023-07-09T20:44:32.286Z,4.13
2023-07-09T20:49:37.230Z,3.88
2023-07-09T20:54:39.532Z,4.30
2023-07-09T20:59:41.024Z,4.65
2023-07-09T21:04:42.529Z,4.50
2023-07-09T21:09:44.094Z,4.15
2023-07-09T21:14:46.285Z,4.20
2023-07-09T21:19:47.793Z,3.88
2023-07-09T21:24:51.130Z,4.07
2023-07-09T21:29:52.604Z,3.97
2023-07-09T21:34:57.319Z,4.35
2023-07-09T21:39:58.937Z,5.05
2023-07-09T21:45:00.415Z,5.05
2023-07-09T21:50:02.451Z,3.72
2023-07-09T21:55:12.164Z,4.85
2023-07-09T22:00:15.753Z,4.68
2023-07-09T22:05:30.156Z,3.95
2023-07-09T22:10:31.700Z,4.82
2023-07-09T22:15:43.782Z,4.55
2023-07-09T22:20:45.983Z,3.63
2023-07-09T22:25:49.009Z,3.83
2023-07-09T22:30:51.382Z,4.13
2023-07-09T22:35:53.774Z,4.03
2023-07-09T22:40:55.203Z,4.45
2023-07-09T22:45:59.091Z,4.00
2023-07-09T22:51:00.660Z,3.78
2023-07-09T22:56:03.614Z,2.65
2023-07-09T23:01:21.364Z,2.83
2023-07-09T23:06:27.566Z,2.03
2023-07-09T23:11:32.349Z,1.00
2023-07-09T23:16:33.822Z,0.93
2023-07-09T23:21:37.940Z,1.10
2023-07-09T23:26:46.843Z,0.90
2023-07-09T23:31:50.295Z,1.02
2023-07-09T23:36:52.726Z,0.70
2023-07-09T23:41:56.906Z,0.40
2023-07-09T23:46:59.185Z,0.60
2023-07-09T23:52:00.832Z,0.47
2023-07-09T23:57:02.473Z,0.50
